Tamms, Illinois
Current Conditions -  °F | °C
As of 8:15 AM on Sunday 25 Jan 2015 (Local Time) from KCIR Reporting Station
Drizzle Drizzle  
Wind Chill: 41°   Ceiling: 5000
Heat Index: 45°   Visibility: 10mi
Dew Point: 37°   Wind: 6mph
Humidity: 73%   Direction: 180°S
Pressure: 29.67"   Gusts: NA
Location:  37.24°N, 89.27°W
Report Text: KCIR 251415Z AUTO 18005KT 10SM DZ OVC050 07/03 A2967 RMK AO2 T00700025
Loading
Personal Weather Stations






























Interactive Weather Map New forecast layout! Learn more

10-Day Weather Forecast

Advertisements
Track Severe Weather on mobile